Time;durP1;ratioP1;P1;durP2;ratioP2;P2;SDS_P1;SDS_P2;PMS_P1;PMS_P2;Temp;Humidity;BMP_temperature;BMP_pressure;BME280_temperature;BME280_humidity;BME280_pressure;Samples;Min_cycle;Max_cycle;Signal;HPM_P1;HPM_P2
2023/02/04 00:02:22;0.00;0.00;0.62;0.00;0.00;0.62;2.93;1.33;;;22.80;27.10;;;;;;2261642;61;20360;-61
2023/02/04 00:05:09;0.00;0.00;0.62;0.00;0.00;0.62;2.40;1.40;;;22.90;27.10;;;;;;2262204;61;20373;-61
2023/02/04 00:07:53;0.00;0.00;0.62;0.00;0.00;0.62;2.57;1.23;;;22.90;27.10;;;;;;2261437;61;20380;-64
2023/02/04 00:10:39;0.00;0.00;0.62;0.00;0.00;0.62;2.37;1.40;;;22.90;27.00;;;;;;2262406;61;20446;-63
2023/02/04 00:13:24;0.00;0.00;0.62;0.00;0.00;0.62;3.43;1.30;;;22.90;27.00;;;;;;2259263;61;20349;-59
2023/02/04 00:16:10;0.00;0.00;0.62;0.00;0.00;0.62;2.70;1.33;;;22.90;27.10;;;;;;2258263;61;20365;-65
2023/02/04 00:18:55;0.00;0.00;0.62;0.00;0.00;0.62;2.97;1.00;;;22.90;27.10;;;;;;2262055;61;20772;-65
2023/02/04 00:21:39;0.00;0.00;0.62;0.00;0.00;0.62;3.17;1.30;;;22.90;27.20;;;;;;2261827;61;20843;-63
2023/02/04 00:24:24;0.00;0.00;0.62;0.00;0.00;0.62;2.20;1.20;;;22.90;27.70;;;;;;2259741;61;21035;-64
2023/02/04 00:27:09;0.00;0.00;0.62;0.00;0.00;0.62;3.77;1.43;;;22.90;27.20;;;;;;2260290;61;20435;-64
2023/02/04 00:29:55;0.00;0.00;0.62;0.00;0.00;0.62;2.60;1.23;;;22.90;27.20;;;;;;2256794;61;20765;-64
2023/02/04 00:32:41;0.00;0.00;0.62;0.00;0.00;0.62;3.37;1.30;;;22.90;27.20;;;;;;2261787;61;20373;-62
2023/02/04 00:35:26;0.00;0.00;0.62;0.00;0.00;0.62;1.90;0.93;;;22.90;27.20;;;;;;2261245;61;20781;-61
2023/02/04 00:38:11;0.00;0.00;0.62;0.00;0.00;0.62;2.20;1.10;;;22.90;27.10;;;;;;2260893;61;20816;-63
2023/02/04 00:40:56;0.00;0.00;0.62;0.00;0.00;0.62;3.17;1.43;;;22.90;27.10;;;;;;2258829;61;20428;-63
2023/02/04 00:43:40;0.00;0.00;0.62;0.00;0.00;0.62;1.83;1.10;;;23.00;27.10;;;;;;2261569;61;20384;-62
2023/02/04 00:46:25;0.00;0.00;0.62;0.00;0.00;0.62;3.10;1.20;;;22.90;27.00;;;;;;2260636;61;20356;-62
2023/02/04 00:49:11;0.00;0.00;0.62;0.00;0.00;0.62;1.80;0.80;;;22.90;27.00;;;;;;2261437;61;20365;-61
2023/02/04 00:51:56;0.00;0.00;0.62;0.00;0.00;0.62;2.20;1.10;;;23.00;27.00;;;;;;2257469;61;20369;-63
2023/02/04 00:54:40;0.00;0.00;0.62;0.00;0.00;0.62;3.67;1.23;;;23.00;27.00;;;;;;2261612;61;20360;-62
2023/02/04 00:57:25;0.00;0.00;0.62;0.00;0.00;0.62;2.20;1.20;;;23.00;27.00;;;;;;2261077;61;20862;-63
2023/02/04 01:00:11;0.00;0.00;0.62;0.00;0.00;0.62;2.97;1.17;;;23.00;27.00;;;;;;2257505;61;20967;-62
2023/02/04 01:02:56;0.00;0.00;0.62;0.00;0.00;0.62;3.83;1.43;;;23.00;27.00;;;;;;2261501;61;20365;-63
2023/02/04 01:05:42;0.00;0.00;0.62;0.00;0.00;0.62;1.87;0.80;;;23.00;27.00;;;;;;2261378;61;20361;-62
2023/02/04 01:08:28;0.00;0.00;0.62;0.00;0.00;0.62;2.83;1.10;;;23.00;27.00;;;;;;2261011;61;20381;-62
2023/02/04 01:11:13;0.00;0.00;0.62;0.00;0.00;0.62;2.50;1.10;;;23.00;27.00;;;;;;2261481;61;20420;-62
2023/02/04 01:13:58;0.00;0.00;0.62;0.00;0.00;0.62;1.80;0.90;;;23.00;27.00;;;;;;2261219;61;20783;-61
2023/02/04 01:16:44;0.00;0.00;0.62;0.00;0.00;0.62;3.20;1.10;;;23.00;27.00;;;;;;2258453;61;20368;-63
2023/02/04 01:19:28;0.00;0.00;0.62;0.00;0.00;0.62;2.50;1.10;;;23.00;26.90;;;;;;2261560;61;20368;-62
2023/02/04 01:22:14;0.00;0.00;0.62;0.00;0.00;0.62;1.83;0.77;;;23.00;27.00;;;;;;2257833;61;20415;-62
2023/02/04 01:24:59;0.00;0.00;0.62;0.00;0.00;0.62;2.10;0.93;;;23.00;26.90;;;;;;2261691;61;20397;-62
2023/02/04 01:27:59;0.00;0.00;0.62;0.00;0.00;0.62;2.00;1.00;;;23.00;26.90;;;;;;2257862;61;20424;-62
2023/02/04 01:30:44;0.00;0.00;0.62;0.00;0.00;0.62;3.47;0.93;;;23.00;26.90;;;;;;2260893;61;20406;-62
2023/02/04 01:33:29;0.00;0.00;0.62;0.00;0.00;0.62;2.23;0.87;;;23.00;27.50;;;;;;2261521;61;20445;-63
2023/02/04 01:36:15;0.00;0.00;0.62;0.00;0.00;0.62;1.70;0.90;;;23.00;26.90;;;;;;2259656;61;20369;-63
2023/02/04 01:39:02;0.00;0.00;0.62;0.00;0.00;0.62;1.80;0.80;;;23.00;26.90;;;;;;2262830;61;20383;-63
2023/02/04 01:41:47;0.00;0.00;0.62;0.00;0.00;0.62;1.90;0.87;;;22.90;26.80;;;;;;2262626;61;21197;-63
2023/02/04 01:44:31;0.00;0.00;0.62;0.00;0.00;0.62;3.40;0.90;;;22.90;26.80;;;;;;2262111;61;20443;-62
2023/02/04 01:47:17;0.00;0.00;0.62;0.00;0.00;0.62;2.50;1.00;;;23.00;26.90;;;;;;2262599;61;20389;-65
2023/02/04 01:50:02;0.00;0.00;0.62;0.00;0.00;0.62;2.47;1.30;;;22.90;26.80;;;;;;2262388;61;20417;-65
2023/02/04 01:52:47;0.00;0.00;0.62;0.00;0.00;0.62;1.73;0.90;;;22.90;26.80;;;;;;2260527;61;20384;-63
2023/02/04 01:55:33;0.00;0.00;0.62;0.00;0.00;0.62;1.60;0.93;;;22.90;26.70;;;;;;2264424;61;20385;-62
2023/02/04 01:58:18;0.00;0.00;0.62;0.00;0.00;0.62;1.87;0.93;;;22.90;26.70;;;;;;2262653;61;20407;-63
2023/02/04 02:01:10;0.00;0.00;0.62;0.00;0.00;0.62;2.70;1.03;;;22.90;26.60;;;;;;2263286;61;20389;-63
2023/02/04 02:03:55;0.00;0.00;0.62;0.00;0.00;0.62;2.53;1.20;;;22.90;26.60;;;;;;2260609;61;20477;-64
2023/02/04 02:06:44;0.00;0.00;0.62;0.00;0.00;0.62;2.17;1.00;;;22.90;26.50;;;;;;2262538;61;20384;-63
2023/02/04 02:09:31;0.00;0.00;0.62;0.00;0.00;0.62;1.67;0.90;;;22.90;26.40;;;;;;2260360;61;20432;-63
2023/02/04 02:12:17;0.00;0.00;0.62;0.00;0.00;0.62;1.70;0.93;;;22.90;26.30;;;;;;2263895;61;20456;-64
2023/02/04 02:15:04;0.00;0.00;0.62;0.00;0.00;0.62;1.60;0.83;;;22.90;26.30;;;;;;2259652;61;20436;-63
2023/02/04 02:17:50;0.00;0.00;0.62;0.00;0.00;0.62;2.30;0.97;;;22.90;26.30;;;;;;2263041;61;20943;-63
2023/02/04 02:20:35;0.00;0.00;0.62;0.00;0.00;0.62;2.07;1.13;;;22.90;26.20;;;;;;2262755;61;20438;-64
2023/02/04 02:23:28;0.00;0.00;0.62;0.00;0.00;0.62;1.80;0.70;;;22.90;26.20;;;;;;2263518;61;20929;-63
2023/02/04 02:26:15;0.00;0.00;0.62;0.00;0.00;0.62;2.10;0.73;;;22.90;26.20;;;;;;2263656;61;20524;-65
2023/02/04 02:29:00;0.00;0.00;0.62;0.00;0.00;0.62;1.80;1.00;;;22.90;26.10;;;;;;2262643;61;20384;-63
2023/02/04 02:31:44;0.00;0.00;0.62;0.00;0.00;0.62;1.40;0.70;;;22.90;26.10;;;;;;2263657;61;20376;-65
2023/02/04 02:34:30;0.00;0.00;0.62;0.00;0.00;0.62;2.07;0.97;;;22.90;26.00;;;;;;2263389;61;20357;-62
2023/02/04 02:37:15;0.00;0.00;0.62;0.00;0.00;0.62;2.10;1.00;;;22.80;25.90;;;;;;2263289;61;20364;-63
2023/02/04 02:40:06;0.00;0.00;0.62;0.00;0.00;0.62;1.40;0.70;;;22.80;25.90;;;;;;2260339;61;20384;-63
2023/02/04 02:42:53;0.00;0.00;0.62;0.00;0.00;0.62;2.40;0.70;;;22.80;25.90;;;;;;2262009;61;20431;-64
2023/02/04 02:45:38;0.00;0.00;0.62;0.00;0.00;0.62;2.37;0.90;;;22.80;25.90;;;;;;2262879;61;20424;-64
2023/02/04 02:48:23;0.00;0.00;0.62;0.00;0.00;0.62;1.70;1.00;;;22.80;25.80;;;;;;2263181;61;20385;-64
2023/02/04 02:51:08;0.00;0.00;0.62;0.00;0.00;0.62;1.40;0.70;;;22.80;25.70;;;;;;2259505;61;20462;-63
2023/02/04 02:53:53;0.00;0.00;0.62;0.00;0.00;0.62;1.30;0.60;;;22.80;25.80;;;;;;2263513;61;20495;-63
2023/02/04 02:56:37;0.00;0.00;0.62;0.00;0.00;0.62;1.40;0.70;;;22.70;25.70;;;;;;2260088;61;20369;-63
2023/02/04 02:59:25;0.00;0.00;0.62;0.00;0.00;0.62;1.47;0.60;;;22.70;25.70;;;;;;2263202;61;20357;-64
2023/02/04 03:02:14;0.00;0.00;0.62;0.00;0.00;0.62;1.57;0.70;;;22.70;25.70;;;;;;2263521;61;20361;-63
2023/02/04 03:05:00;0.00;0.00;0.62;0.00;0.00;0.62;1.50;0.70;;;22.70;25.60;;;;;;2259422;61;20388;-62
2023/02/04 03:07:47;0.00;0.00;0.62;0.00;0.00;0.62;1.50;0.70;;;22.70;25.60;;;;;;2262552;61;20361;-63
2023/02/04 03:10:33;0.00;0.00;0.62;0.00;0.00;0.62;1.50;0.70;;;22.70;25.60;;;;;;2263063;61;20420;-63
2023/02/04 03:13:18;0.00;0.00;0.62;0.00;0.00;0.62;1.40;0.70;;;22.70;25.50;;;;;;2262288;61;20581;-62
2023/02/04 03:16:07;0.00;0.00;0.62;0.00;0.00;0.62;1.93;0.80;;;22.70;25.50;;;;;;2263690;61;20361;-63
2023/02/04 03:18:52;0.00;0.00;0.62;0.00;0.00;0.62;1.20;0.50;;;22.60;25.50;;;;;;2263496;61;20365;-64
2023/02/04 03:21:37;0.00;0.00;0.62;0.00;0.00;0.62;2.17;0.70;;;22.60;25.40;;;;;;2263686;61;20408;-64
2023/02/04 03:24:22;0.00;0.00;0.62;0.00;0.00;0.62;1.60;0.70;;;22.60;25.40;;;;;;2264110;61;20388;-61
2023/02/04 03:27:07;0.00;0.00;0.62;0.00;0.00;0.62;1.53;0.90;;;22.60;25.40;;;;;;2263567;61;20384;-63
2023/02/04 03:29:52;0.00;0.00;0.62;0.00;0.00;0.62;4.43;1.17;;;22.60;25.40;;;;;;2264403;61;20385;-62
2023/02/04 03:32:40;0.00;0.00;0.62;0.00;0.00;0.62;1.20;0.60;;;22.60;25.30;;;;;;2263961;61;20426;-62
2023/02/04 03:35:25;0.00;0.00;0.62;0.00;0.00;0.62;1.73;1.03;;;22.60;25.40;;;;;;2263918;61;20369;-63
2023/02/04 03:38:10;0.00;0.00;0.62;0.00;0.00;0.62;1.30;0.70;;;22.50;25.30;;;;;;2263479;61;20415;-63
2023/02/04 03:40:54;0.00;0.00;0.62;0.00;0.00;0.62;1.40;0.70;;;22.50;25.20;;;;;;2263639;61;20400;-64
2023/02/04 03:43:39;0.00;0.00;0.62;0.00;0.00;0.62;1.33;0.63;;;22.50;25.20;;;;;;2262265;61;20389;-63
2023/02/04 03:46:24;0.00;0.00;0.62;0.00;0.00;0.62;1.70;0.80;;;22.50;25.20;;;;;;2260024;61;20409;-62
2023/02/04 03:49:11;0.00;0.00;0.62;0.00;0.00;0.62;1.50;0.70;;;22.40;25.10;;;;;;2263831;61;20775;-62
2023/02/04 03:51:56;0.00;0.00;0.62;0.00;0.00;0.62;1.30;0.60;;;22.40;25.10;;;;;;2263250;61;20365;-63
2023/02/04 03:54:40;0.00;0.00;0.62;0.00;0.00;0.62;1.30;0.77;;;22.40;25.10;;;;;;2263085;61;20385;-63
2023/02/04 03:57:25;0.00;0.00;0.62;0.00;0.00;0.62;1.30;0.60;;;22.40;25.10;;;;;;2263332;61;20389;-64
2023/02/04 04:00:12;0.00;0.00;0.62;0.00;0.00;0.62;1.90;1.00;;;22.40;25.10;;;;;;2263679;61;20397;-65
2023/02/04 04:02:57;0.00;0.00;0.62;0.00;0.00;0.62;1.30;0.70;;;22.30;25.00;;;;;;2263728;61;20892;-61
2023/02/04 04:05:43;0.00;0.00;0.62;0.00;0.00;0.62;1.20;0.60;;;22.30;25.00;;;;;;2263297;61;20416;-63
2023/02/04 04:08:28;0.00;0.00;0.62;0.00;0.00;0.62;1.70;0.80;;;22.30;25.00;;;;;;2263679;61;20369;-64
2023/02/04 04:11:13;0.00;0.00;0.62;0.00;0.00;0.62;1.40;0.80;;;22.30;25.10;;;;;;2263255;61;20484;-64
2023/02/04 04:13:58;0.00;0.00;0.62;0.00;0.00;0.62;3.17;0.90;;;22.30;25.10;;;;;;2263508;61;20408;-63
2023/02/04 04:16:43;0.00;0.00;0.62;0.00;0.00;0.62;1.40;0.90;;;22.30;25.10;;;;;;2263396;61;20516;-64
2023/02/04 04:19:27;0.00;0.00;0.62;0.00;0.00;0.62;1.40;0.80;;;22.20;25.00;;;;;;2262712;61;20454;-63
2023/02/04 04:22:14;0.00;0.00;0.62;0.00;0.00;0.62;1.50;0.70;;;22.20;25.00;;;;;;2263638;61;20365;-63
2023/02/04 04:24:58;0.00;0.00;0.62;0.00;0.00;0.62;2.07;0.90;;;22.20;25.00;;;;;;2263949;61;21048;-64
2023/02/04 04:27:43;0.00;0.00;0.62;0.00;0.00;0.62;1.40;0.70;;;22.20;25.00;;;;;;2262542;61;20369;-64
2023/02/04 04:30:28;0.00;0.00;0.62;0.00;0.00;0.62;2.03;0.70;;;22.20;25.00;;;;;;2263934;61;20739;-61
2023/02/04 04:33:13;0.00;0.00;0.62;0.00;0.00;0.62;1.40;0.63;;;22.10;25.00;;;;;;2263637;61;20407;-63
2023/02/04 04:35:57;0.00;0.00;0.62;0.00;0.00;0.62;1.40;0.70;;;22.10;24.90;;;;;;2263490;61;20360;-62
2023/02/04 04:38:44;0.00;0.00;0.62;0.00;0.00;0.62;1.70;0.70;;;22.10;24.90;;;;;;2263659;61;20364;-62
2023/02/04 04:41:28;0.00;0.00;0.62;0.00;0.00;0.62;1.50;0.70;;;22.10;25.00;;;;;;2262617;61;20420;-64
2023/02/04 04:44:13;0.00;0.00;0.62;0.00;0.00;0.62;1.30;0.70;;;22.10;24.90;;;;;;2263330;61;20428;-65
2023/02/04 04:46:58;0.00;0.00;0.62;0.00;0.00;0.62;1.50;0.70;;;22.00;24.90;;;;;;2262066;61;20373;-63
2023/02/04 04:49:42;0.00;0.00;0.62;0.00;0.00;0.62;1.40;0.70;;;22.00;24.80;;;;;;2259284;61;20422;-62
2023/02/04 04:52:27;0.00;0.00;0.62;0.00;0.00;0.62;1.70;0.90;;;22.00;24.80;;;;;;2260581;61;20364;-60
2023/02/04 04:55:13;0.00;0.00;0.62;0.00;0.00;0.62;1.27;0.67;;;22.00;24.90;;;;;;2259800;61;20361;-62
2023/02/04 04:57:58;0.00;0.00;0.62;0.00;0.00;0.62;1.60;0.80;;;22.00;24.90;;;;;;2259860;61;20377;-63
2023/02/04 05:00:43;0.00;0.00;0.62;0.00;0.00;0.62;1.80;0.87;;;22.00;24.90;;;;;;2257135;61;20381;-66
2023/02/04 05:03:27;0.00;0.00;0.62;0.00;0.00;0.62;1.57;0.80;;;22.00;24.90;;;;;;2259181;61;20435;-62
2023/02/04 05:06:12;0.00;0.00;0.62;0.00;0.00;0.62;1.57;0.80;;;21.90;24.80;;;;;;2256711;61;20416;-63
2023/02/04 05:08:57;0.00;0.00;0.62;0.00;0.00;0.62;1.63;0.70;;;21.90;24.90;;;;;;2260327;61;20365;-61
2023/02/04 05:11:43;0.00;0.00;0.62;0.00;0.00;0.62;1.47;0.67;;;21.90;24.90;;;;;;2258808;61;20373;-61
2023/02/04 05:14:27;0.00;0.00;0.62;0.00;0.00;0.62;1.40;0.70;;;21.90;24.90;;;;;;2260118;61;20460;-60
2023/02/04 05:17:12;0.00;0.00;0.62;0.00;0.00;0.62;1.40;0.73;;;21.90;24.90;;;;;;2259891;61;20427;-61
2023/02/04 05:19:57;0.00;0.00;0.62;0.00;0.00;0.62;1.70;0.70;;;21.90;24.90;;;;;;2259534;61;20786;-62
2023/02/04 05:22:41;0.00;0.00;0.62;0.00;0.00;0.62;1.40;0.90;;;21.80;24.80;;;;;;2260084;61;20384;-66
2023/02/04 05:25:27;0.00;0.00;0.62;0.00;0.00;0.62;1.80;0.93;;;21.80;24.80;;;;;;2259628;61;20849;-66
2023/02/04 05:28:14;0.00;0.00;0.62;0.00;0.00;0.62;1.60;0.90;;;21.80;24.80;;;;;;2259725;61;20380;-63
2023/02/04 05:30:58;0.00;0.00;0.62;0.00;0.00;0.62;1.30;0.70;;;21.80;24.80;;;;;;2260162;61;20424;-59
2023/02/04 05:33:46;0.00;0.00;0.62;0.00;0.00;0.62;1.50;0.77;;;21.80;24.80;;;;;;2259062;61;20404;-62
2023/02/04 05:36:30;0.00;0.00;0.62;0.00;0.00;0.62;1.50;0.80;;;21.70;24.70;;;;;;2259772;61;20356;-64
2023/02/04 05:39:15;0.00;0.00;0.62;0.00;0.00;0.62;1.80;1.00;;;21.70;24.70;;;;;;2260019;61;20769;-69
2023/02/04 05:42:00;0.00;0.00;0.62;0.00;0.00;0.62;1.30;0.70;;;21.70;24.70;;;;;;2259644;61;20417;-66
2023/02/04 05:44:46;0.00;0.00;0.62;0.00;0.00;0.62;1.70;0.90;;;21.70;24.80;;;;;;2259996;61;20393;-63
2023/02/04 05:47:31;0.00;0.00;0.62;0.00;0.00;0.62;1.77;0.97;;;21.70;24.80;;;;;;2259338;61;20407;-64
2023/02/04 05:50:15;0.00;0.00;0.62;0.00;0.00;0.62;1.27;0.60;;;21.70;24.80;;;;;;2260426;61;20381;-65
2023/02/04 05:53:00;0.00;0.00;0.62;0.00;0.00;0.62;1.70;0.70;;;21.60;24.80;;;;;;2260707;61;20496;-66
2023/02/04 05:55:45;0.00;0.00;0.62;0.00;0.00;0.62;1.53;0.90;;;21.60;24.70;;;;;;2260062;61;20381;-65
2023/02/04 05:58:32;0.00;0.00;0.62;0.00;0.00;0.62;1.50;0.80;;;21.60;24.70;;;;;;2260495;61;20372;-63
2023/02/04 06:01:18;0.00;0.00;0.62;0.00;0.00;0.62;1.90;0.97;;;21.60;24.60;;;;;;2260986;61;20944;-62
2023/02/04 06:04:03;0.00;0.00;0.62;0.00;0.00;0.62;1.40;0.83;;;21.60;24.70;;;;;;2259811;61;20415;-64
2023/02/04 06:06:49;0.00;0.00;0.62;0.00;0.00;0.62;2.90;0.90;;;21.60;24.70;;;;;;2259518;61;20368;-65
2023/02/04 06:09:33;0.00;0.00;0.62;0.00;0.00;0.62;1.93;1.00;;;21.60;24.80;;;;;;2259735;61;20776;-62
2023/02/04 06:12:18;0.00;0.00;0.62;0.00;0.00;0.62;1.40;0.70;;;21.50;24.90;;;;;;2259792;61;20753;-65
2023/02/04 06:15:03;0.00;0.00;0.62;0.00;0.00;0.62;1.87;0.80;;;21.50;24.90;;;;;;2259734;61;20913;-61
2023/02/04 06:17:49;0.00;0.00;0.62;0.00;0.00;0.62;2.07;0.80;;;21.50;25.00;;;;;;2259224;61;20461;-58
2023/02/04 06:20:34;0.00;0.00;0.62;0.00;0.00;0.62;1.93;0.80;;;21.50;25.10;;;;;;2260084;61;20434;-64
2023/02/04 06:23:19;0.00;0.00;0.62;0.00;0.00;0.62;2.60;0.80;;;21.50;25.10;;;;;;2260251;61;20804;-64
2023/02/04 06:26:04;0.00;0.00;0.62;0.00;0.00;0.62;1.40;0.80;;;21.50;25.10;;;;;;2259151;61;20432;-64
2023/02/04 06:28:49;0.00;0.00;0.62;0.00;0.00;0.62;1.70;0.83;;;21.50;25.70;;;;;;2259929;61;20777;-65
2023/02/04 06:31:36;0.00;0.00;0.62;0.00;0.00;0.62;1.50;0.80;;;21.50;25.10;;;;;;2259745;61;20416;-65
2023/02/04 06:34:22;0.00;0.00;0.62;0.00;0.00;0.62;1.40;0.70;;;21.50;25.20;;;;;;2259684;61;20408;-63
2023/02/04 06:37:07;0.00;0.00;0.62;0.00;0.00;0.62;1.50;0.73;;;21.50;25.20;;;;;;2259707;61;20461;-67
2023/02/04 06:39:53;0.00;0.00;0.62;0.00;0.00;0.62;1.60;0.80;;;21.50;25.20;;;;;;2259146;61;20461;-62
2023/02/04 06:42:38;0.00;0.00;0.62;0.00;0.00;0.62;2.33;0.70;;;21.50;25.20;;;;;;2260010;61;20433;-62
2023/02/04 06:45:22;0.00;0.00;0.62;0.00;0.00;0.62;2.80;0.90;;;21.50;25.20;;;;;;2259853;61;20389;-61
2023/02/04 06:48:07;0.00;0.00;0.62;0.00;0.00;0.62;2.70;0.90;;;21.50;25.20;;;;;;2259267;61;20420;-61
2023/02/04 06:50:54;0.00;0.00;0.62;0.00;0.00;0.62;1.87;0.80;;;21.50;25.20;;;;;;2259907;61;20408;-61
2023/02/04 06:53:39;0.00;0.00;0.62;0.00;0.00;0.62;1.50;0.80;;;21.50;25.20;;;;;;2260406;61;20373;-61
2023/02/04 06:56:25;0.00;0.00;0.62;0.00;0.00;0.62;3.20;0.97;;;21.50;25.80;;;;;;2260140;61;20917;-61
2023/02/04 06:59:10;0.00;0.00;0.62;0.00;0.00;0.62;1.80;1.00;;;21.50;25.20;;;;;;2260771;61;20349;-59
2023/02/04 07:01:56;0.00;0.00;0.62;0.00;0.00;0.62;4.90;1.10;;;21.50;25.20;;;;;;2259736;61;20889;-59
2023/02/04 07:04:42;0.00;0.00;0.62;0.00;0.00;0.62;1.80;0.90;;;21.50;25.20;;;;;;2260412;61;20424;-61
2023/02/04 07:07:29;0.00;0.00;0.62;0.00;0.00;0.62;1.60;0.90;;;21.50;25.20;;;;;;2260626;61;20407;-60
2023/02/04 07:10:15;0.00;0.00;0.62;0.00;0.00;0.62;1.90;1.20;;;21.50;25.20;;;;;;2259996;61;20388;-60
2023/02/04 07:13:00;0.00;0.00;0.62;0.00;0.00;0.62;2.43;1.40;;;21.50;25.20;;;;;;2260577;61;20373;-61
2023/02/04 07:15:44;0.00;0.00;0.62;0.00;0.00;0.62;2.23;1.30;;;21.50;25.20;;;;;;2260603;61;20423;-63
2023/02/04 07:18:29;0.00;0.00;0.62;0.00;0.00;0.62;1.80;1.13;;;21.50;25.20;;;;;;2260429;61;20881;-62
2023/02/04 07:21:14;0.00;0.00;0.62;0.00;0.00;0.62;2.63;1.20;;;21.50;25.20;;;;;;2260579;61;20384;-62
2023/02/04 07:24:00;0.00;0.00;0.62;0.00;0.00;0.62;2.80;1.47;;;21.50;25.20;;;;;;2259967;61;20411;-63
2023/02/04 07:26:44;0.00;0.00;0.62;0.00;0.00;0.62;2.93;1.50;;;21.50;25.20;;;;;;2259793;61;20774;-61
2023/02/04 07:29:29;0.00;0.00;0.62;0.00;0.00;0.62;1.97;1.30;;;21.50;25.20;;;;;;2260318;61;20814;-62
2023/02/04 07:32:13;0.00;0.00;0.62;0.00;0.00;0.62;2.53;1.93;;;21.50;25.20;;;;;;2260092;61;20365;-61
2023/02/04 07:34:59;0.00;0.00;0.62;0.00;0.00;0.62;2.70;1.70;;;21.50;25.20;;;;;;2259464;61;20858;-60
2023/02/04 07:37:44;0.00;0.00;0.62;0.00;0.00;0.62;2.20;1.70;;;21.50;25.20;;;;;;2259817;61;20369;-61
2023/02/04 07:40:30;0.00;0.00;0.62;0.00;0.00;0.62;4.20;1.80;;;21.50;25.20;;;;;;2259560;61;20385;-61
2023/02/04 07:43:15;0.00;0.00;0.62;0.00;0.00;0.62;2.83;2.07;;;21.50;25.20;;;;;;2260443;61;20773;-60
2023/02/04 07:45:59;0.00;0.00;0.62;0.00;0.00;0.62;3.00;2.10;;;21.50;25.20;;;;;;2260251;61;20389;-61
2023/02/04 07:48:44;0.00;0.00;0.62;0.00;0.00;0.62;3.73;2.20;;;21.50;25.20;;;;;;2260160;61;20369;-61
2023/02/04 07:51:29;0.00;0.00;0.62;0.00;0.00;0.62;3.23;2.30;;;21.50;25.20;;;;;;2260712;61;20432;-60
2023/02/04 07:54:13;0.00;0.00;0.62;0.00;0.00;0.62;4.63;2.47;;;21.50;25.20;;;;;;2259960;61;20345;-59
2023/02/04 07:57:00;0.00;0.00;0.62;0.00;0.00;0.62;5.50;3.07;;;21.50;25.20;;;;;;2260492;61;20369;-62
2023/02/04 07:59:44;0.00;0.00;0.62;0.00;0.00;0.62;3.93;3.13;;;21.50;25.20;;;;;;2260824;61;20438;-61
2023/02/04 08:02:29;0.00;0.00;0.62;0.00;0.00;0.62;3.67;2.57;;;21.50;25.20;;;;;;2260030;61;20897;-60
2023/02/04 08:05:14;0.00;0.00;0.62;0.00;0.00;0.62;4.00;3.23;;;21.50;25.20;;;;;;2260383;61;20391;-60
2023/02/04 08:08:00;0.00;0.00;0.62;0.00;0.00;0.62;4.73;3.60;;;21.50;25.20;;;;;;2260328;61;20435;-62
2023/02/04 08:10:46;0.00;0.00;0.62;0.00;0.00;0.62;6.27;4.30;;;21.50;25.20;;;;;;2260171;61;20384;-62
2023/02/04 08:13:32;0.00;0.00;0.62;0.00;0.00;0.62;5.50;3.90;;;21.50;25.20;;;;;;2257449;61;20459;-61
2023/02/04 08:16:16;0.00;0.00;0.62;0.00;0.00;0.62;5.73;4.10;;;21.50;25.20;;;;;;2259734;61;20369;-59
2023/02/04 08:19:01;0.00;0.00;0.62;0.00;0.00;0.62;5.50;3.93;;;21.50;25.20;;;;;;2260271;61;20404;-61
2023/02/04 08:21:47;0.00;0.00;0.62;0.00;0.00;0.62;5.30;4.10;;;21.50;25.30;;;;;;2260664;61;20364;-61
2023/02/04 08:24:32;0.00;0.00;0.62;0.00;0.00;0.62;5.70;4.20;;;21.50;25.30;;;;;;2259407;61;20941;-60
2023/02/04 08:27:17;0.00;0.00;0.62;0.00;0.00;0.62;4.70;3.57;;;21.50;25.30;;;;;;2260418;61;20789;-60
2023/02/04 08:30:04;0.00;0.00;0.62;0.00;0.00;0.62;5.87;4.20;;;21.50;25.40;;;;;;2260338;61;20789;-60
2023/02/04 08:32:49;0.00;0.00;0.62;0.00;0.00;0.62;5.57;4.60;;;21.50;25.40;;;;;;2260337;61;20405;-61
2023/02/04 08:35:34;0.00;0.00;0.62;0.00;0.00;0.62;5.70;4.40;;;21.60;25.40;;;;;;2260295;61;20427;-59
2023/02/04 08:38:19;0.00;0.00;0.62;0.00;0.00;0.62;6.57;4.73;;;21.50;25.40;;;;;;2259980;61;20790;-62
2023/02/04 08:41:04;0.00;0.00;0.62;0.00;0.00;0.62;6.10;4.67;;;21.60;25.40;;;;;;2260258;61;20381;-62
2023/02/04 08:43:49;0.00;0.00;0.62;0.00;0.00;0.62;6.60;4.87;;;21.60;25.40;;;;;;2260116;61;20388;-60
2023/02/04 08:46:34;0.00;0.00;0.62;0.00;0.00;0.62;5.83;5.13;;;21.60;25.40;;;;;;2259449;61;20396;-62
2023/02/04 08:49:20;0.00;0.00;0.62;0.00;0.00;0.62;6.73;5.10;;;21.60;25.40;;;;;;2260541;61;20396;-61
2023/02/04 08:52:06;0.00;0.00;0.62;0.00;0.00;0.62;5.30;4.30;;;21.60;25.40;;;;;;2260251;61;20411;-60
2023/02/04 08:54:51;0.00;0.00;0.62;0.00;0.00;0.62;6.50;5.10;;;21.60;25.40;;;;;;2260076;61;20439;-62
2023/02/04 08:57:36;0.00;0.00;0.62;0.00;0.00;0.62;4.30;3.80;;;21.60;25.40;;;;;;2260347;61;20861;-60
2023/02/04 09:00:24;0.00;0.00;0.62;0.00;0.00;0.62;5.90;4.50;;;21.60;25.30;;;;;;2259942;61;20385;-60
2023/02/04 09:03:10;0.00;0.00;0.62;0.00;0.00;0.62;5.00;4.37;;;21.60;25.30;;;;;;2260247;61;20373;-61
2023/02/04 09:05:54;0.00;0.00;0.62;0.00;0.00;0.62;6.17;4.50;;;21.70;25.40;;;;;;2260488;61;20388;-61
2023/02/04 09:08:39;0.00;0.00;0.62;0.00;0.00;0.62;5.30;4.30;;;21.70;25.40;;;;;;2259780;61;20453;-60
2023/02/04 09:11:24;0.00;0.00;0.62;0.00;0.00;0.62;6.60;5.10;;;21.70;25.40;;;;;;2260319;61;20389;-61
2023/02/04 09:14:09;0.00;0.00;0.62;0.00;0.00;0.62;6.97;4.63;;;21.70;25.30;;;;;;2260357;61;20365;-62
2023/02/04 09:16:53;0.00;0.00;0.62;0.00;0.00;0.62;6.37;4.20;;;21.70;25.40;;;;;;2259508;61;20932;-58
2023/02/04 09:19:39;0.00;0.00;0.62;0.00;0.00;0.62;5.00;3.93;;;21.70;25.40;;;;;;2259865;61;20384;-61
2023/02/04 09:22:24;0.00;0.00;0.62;0.00;0.00;0.62;5.43;4.50;;;21.70;25.40;;;;;;2259540;61;20405;-60
2023/02/04 09:25:08;0.00;0.00;0.62;0.00;0.00;0.62;5.20;4.13;;;21.70;25.40;;;;;;2260165;61;20416;-62
2023/02/04 09:27:53;0.00;0.00;0.62;0.00;0.00;0.62;5.33;4.30;;;21.80;25.50;;;;;;2260508;61;20346;-59
2023/02/04 09:30:39;0.00;0.00;0.62;0.00;0.00;0.62;4.90;3.50;;;21.80;25.40;;;;;;2259610;61;20384;-62
2023/02/04 09:33:24;0.00;0.00;0.62;0.00;0.00;0.62;5.13;3.80;;;21.80;25.50;;;;;;2260290;61;20400;-61
2023/02/04 09:36:10;0.00;0.00;0.62;0.00;0.00;0.62;8.10;4.37;;;21.80;25.50;;;;;;2260077;61;20461;-62
2023/02/04 09:38:55;0.00;0.00;0.62;0.00;0.00;0.62;4.77;3.67;;;21.80;25.40;;;;;;2259946;61;20411;-61
2023/02/04 09:41:41;0.00;0.00;0.62;0.00;0.00;0.62;4.40;3.57;;;21.80;25.50;;;;;;2260339;61;20961;-60
2023/02/04 09:44:27;0.00;0.00;0.62;0.00;0.00;0.62;4.13;3.30;;;21.90;25.50;;;;;;2259918;61;20492;-60
2023/02/04 09:47:14;0.00;0.00;0.62;0.00;0.00;0.62;5.77;4.13;;;21.90;25.50;;;;;;2259782;61;20385;-60
2023/02/04 09:49:59;0.00;0.00;0.62;0.00;0.00;0.62;4.60;3.30;;;21.90;25.50;;;;;;2260448;61;20388;-60
2023/02/04 09:52:48;0.00;0.00;0.62;0.00;0.00;0.62;5.60;3.63;;;21.90;25.50;;;;;;2256645;61;20832;-60
2023/02/04 09:55:37;0.00;0.00;0.62;0.00;0.00;0.62;4.00;3.23;;;21.90;25.50;;;;;;2260016;61;20454;-59
2023/02/04 09:58:25;0.00;0.00;0.62;0.00;0.00;0.62;3.70;3.23;;;21.90;25.50;;;;;;2260192;61;20365;-59
2023/02/04 10:01:14;0.00;0.00;0.62;0.00;0.00;0.62;4.70;3.50;;;22.00;25.50;;;;;;2259879;61;20450;-61
2023/02/04 10:04:01;0.00;0.00;0.62;0.00;0.00;0.62;4.13;2.87;;;22.00;25.60;;;;;;2260229;61;20707;-59
2023/02/04 10:06:45;0.00;0.00;0.62;0.00;0.00;0.62;4.27;3.33;;;22.00;25.50;;;;;;2259679;61;20439;-61
2023/02/04 10:09:31;0.00;0.00;0.62;0.00;0.00;0.62;3.17;2.33;;;22.10;25.60;;;;;;2260150;61;20380;-61
2023/02/04 10:12:16;0.00;0.00;0.62;0.00;0.00;0.62;4.47;3.27;;;22.10;25.60;;;;;;2260270;61;20395;-60
2023/02/04 10:15:02;0.00;0.00;0.62;0.00;0.00;0.62;3.57;2.70;;;22.10;25.60;;;;;;2259582;61;20459;-61
2023/02/04 10:17:49;0.00;0.00;0.62;0.00;0.00;0.62;3.67;2.53;;;22.10;25.50;;;;;;2259878;61;20392;-61
2023/02/04 10:20:38;0.00;0.00;0.62;0.00;0.00;0.62;3.10;2.57;;;22.10;25.50;;;;;;2260062;61;20882;-62
2023/02/04 10:23:23;0.00;0.00;0.62;0.00;0.00;0.62;4.03;3.20;;;22.20;25.50;;;;;;2259672;61;20388;-60
2023/02/04 10:26:11;0.00;0.00;0.62;0.00;0.00;0.62;4.17;2.73;;;22.20;25.50;;;;;;2257010;61;20393;-60
2023/02/04 10:29:01;0.00;0.00;0.62;0.00;0.00;0.62;3.70;2.80;;;22.20;25.50;;;;;;2260659;61;20430;-63
2023/02/04 10:31:48;0.00;0.00;0.62;0.00;0.00;0.62;3.20;2.67;;;22.20;25.40;;;;;;2260965;61;20365;-61
2023/02/04 10:34:38;0.00;0.00;0.62;0.00;0.00;0.62;3.20;2.50;;;22.20;25.40;;;;;;2260764;61;20357;-60
2023/02/04 10:37:23;0.00;0.00;0.62;0.00;0.00;0.62;3.07;2.37;;;22.20;25.30;;;;;;2260032;61;20396;-61
2023/02/04 10:40:26;0.00;0.00;0.62;0.00;0.00;0.62;3.73;2.70;;;22.30;25.40;;;;;;2260910;61;20384;-59
2023/02/04 10:43:16;0.00;0.00;0.62;0.00;0.00;0.62;3.73;2.63;;;22.30;25.40;;;;;;2257341;61;20422;-61
2023/02/04 10:46:03;0.00;0.00;0.62;0.00;0.00;0.62;3.20;2.37;;;22.30;25.40;;;;;;2260293;61;20392;-61
2023/02/04 10:48:47;0.00;0.00;0.62;0.00;0.00;0.62;3.50;2.40;;;22.30;25.30;;;;;;2260805;61;20893;-61
2023/02/04 10:51:32;0.00;0.00;0.62;0.00;0.00;0.62;3.90;2.70;;;22.30;25.30;;;;;;2260341;61;20384;-61
2023/02/04 10:54:29;0.00;0.00;0.62;0.00;0.00;0.62;3.20;2.40;;;22.30;25.30;;;;;;2260722;61;20499;-61